createdAt,value
2023-06-17T00:01:29.343Z,27.40
2023-06-17T00:03:57.448Z,27.60
2023-06-17T00:06:25.348Z,27.70
2023-06-17T00:08:55.642Z,27.80
2023-06-17T00:11:23.725Z,28.00
2023-06-17T00:13:53.298Z,28.10
2023-06-17T00:16:22.158Z,28.30
2023-06-17T00:18:52.635Z,28.30
2023-06-17T00:21:20.545Z,28.40
2023-06-17T00:23:48.508Z,28.50
2023-06-17T00:26:16.459Z,28.60
2023-06-17T00:28:44.354Z,28.80
2023-06-17T00:31:13.668Z,29.00
2023-06-17T00:33:41.627Z,29.10
2023-06-17T00:36:09.748Z,29.20
2023-06-17T00:38:37.658Z,29.40
2023-06-17T00:41:05.541Z,29.50
2023-06-17T00:43:33.468Z,29.60
2023-06-17T00:46:01.537Z,29.70
2023-06-17T00:48:31.084Z,29.80
2023-06-17T00:51:02.984Z,29.80
2023-06-17T00:53:31.716Z,29.90
2023-06-17T00:56:00.171Z,29.90
2023-06-17T00:58:28.326Z,29.90
2023-06-17T01:00:56.728Z,30.10
2023-06-17T01:03:25.745Z,30.30
2023-06-17T01:06:00.330Z,30.60
2023-06-17T01:08:39.277Z,30.90
2023-06-17T01:11:10.630Z,31.10
2023-06-17T01:13:39.755Z,31.30
2023-06-17T01:16:07.873Z,31.50
2023-06-17T01:18:37.612Z,31.70
2023-06-17T01:21:07.162Z,32.00
2023-06-17T01:23:36.521Z,32.30
2023-06-17T01:26:06.348Z,32.50
2023-06-17T01:28:37.409Z,32.70
2023-06-17T01:31:05.972Z,32.80
2023-06-17T01:33:34.100Z,33.00
2023-06-17T01:36:05.462Z,33.10
2023-06-17T01:38:39.880Z,33.50
2023-06-17T01:41:11.851Z,34.10
2023-06-17T01:43:42.251Z,34.90
2023-06-17T01:46:12.499Z,35.70
2023-06-17T01:48:40.815Z,36.10
2023-06-17T01:51:09.138Z,36.60
2023-06-17T01:53:37.070Z,36.90
2023-06-17T01:58:33.664Z,37.60
2023-06-17T02:01:01.683Z,38.00
2023-06-17T02:03:29.985Z,38.20
2023-06-17T02:05:59.206Z,38.40
2023-06-17T02:08:27.993Z,38.60
2023-06-17T02:10:56.091Z,39.10
2023-06-17T02:13:24.092Z,39.70
2023-06-17T02:15:54.117Z,40.40
2023-06-17T02:18:23.212Z,41.10
2023-06-17T02:20:51.230Z,41.90
2023-06-17T02:23:19.214Z,43.20
2023-06-17T02:25:47.176Z,43.20
2023-06-17T02:28:15.138Z,43.70
2023-06-17T02:30:43.155Z,44.70
2023-06-17T02:33:13.979Z,44.60
2023-06-17T02:35:42.983Z,45.20
2023-06-17T02:38:10.965Z,45.70
2023-06-17T02:40:38.922Z,46.60
2023-06-17T02:43:06.892Z,47.60
2023-06-17T02:45:34.762Z,48.60
2023-06-17T02:48:03.541Z,49.50
2023-06-17T02:50:32.910Z,50.50
2023-06-17T02:53:01.606Z,51.30
2023-06-17T02:55:29.663Z,52.10
2023-06-17T02:57:57.641Z,52.60
2023-06-17T03:00:25.892Z,53.20
2023-06-17T03:02:54.095Z,53.90
2023-06-17T03:05:23.481Z,54.80
2023-06-17T03:07:52.953Z,55.70
2023-06-17T03:10:21.633Z,56.40
2023-06-17T03:12:49.856Z,57.30
2023-06-17T03:15:19.192Z,58.10
2023-06-17T03:17:47.444Z,58.60
2023-06-17T03:20:15.544Z,59.40
2023-06-17T03:22:46.912Z,60.30
2023-06-17T03:25:16.162Z,61.10
2023-06-17T03:27:44.007Z,61.50
2023-06-17T03:30:13.159Z,62.20
2023-06-17T03:32:41.059Z,63.10
2023-06-17T03:35:09.610Z,64.20
2023-06-17T03:37:37.523Z,66.30
2023-06-17T03:40:06.304Z,66.60
2023-06-17T03:42:35.572Z,67.50
2023-06-17T03:45:04.865Z,68.40
2023-06-17T03:47:32.800Z,69.40
2023-06-17T03:50:00.802Z,70.50
2023-06-17T03:52:28.803Z,71.70
2023-06-17T03:54:57.175Z,73.40
2023-06-17T03:57:25.069Z,74.80
2023-06-17T03:59:54.303Z,76.20
2023-06-17T04:02:22.248Z,77.20
2023-06-17T04:04:53.627Z,77.90
2023-06-17T04:07:21.833Z,78.70
2023-06-17T04:10:05.383Z,79.50
2023-06-17T04:12:34.857Z,80.30
2023-06-17T04:15:04.664Z,81.20
2023-06-17T04:17:32.571Z,82.10
2023-06-17T04:20:13.237Z,82.70
2023-06-17T04:22:42.171Z,83.50
2023-06-17T04:25:11.885Z,83.90
2023-06-17T04:27:40.653Z,84.40
2023-06-17T04:30:11.327Z,85.10
2023-06-17T04:32:40.848Z,85.90
2023-06-17T04:35:10.225Z,86.80
2023-06-17T04:37:38.159Z,87.60
2023-06-17T04:40:08.651Z,88.10
2023-06-17T04:42:38.556Z,88.40
2023-06-17T04:45:07.436Z,88.70
2023-06-17T04:47:36.722Z,89.20
2023-06-17T04:50:07.286Z,89.40
2023-06-17T04:52:35.167Z,89.70
2023-06-17T04:55:03.343Z,90.00
2023-06-17T04:57:31.328Z,90.10
2023-06-17T04:59:59.190Z,90.40
2023-06-17T05:02:27.143Z,90.60
2023-06-17T05:04:56.526Z,90.80
2023-06-17T05:07:24.617Z,90.90
2023-06-17T05:09:52.546Z,91.00
2023-06-17T05:12:20.407Z,90.90
2023-06-17T05:14:48.373Z,90.80
2023-06-17T05:17:16.428Z,90.70
2023-06-17T05:19:46.958Z,90.50
2023-06-17T05:22:16.221Z,90.30
2023-06-17T05:24:44.229Z,90.10
2023-06-17T05:27:12.347Z,90.00
2023-06-17T05:29:40.607Z,89.90
2023-06-17T05:32:08.713Z,89.80
2023-06-17T05:34:36.749Z,89.30
2023-06-17T05:37:05.117Z,89.00
2023-06-17T05:39:34.364Z,88.70
2023-06-17T05:42:02.296Z,88.10
2023-06-17T05:44:30.374Z,87.40
2023-06-17T05:46:58.336Z,86.80
2023-06-17T05:49:26.183Z,86.50
2023-06-17T05:51:54.083Z,86.30
2023-06-17T05:54:21.977Z,86.30
2023-06-17T05:56:51.951Z,86.20
2023-06-17T05:59:19.881Z,85.90
2023-06-17T06:01:47.861Z,85.40
2023-06-17T06:04:15.921Z,84.80
2023-06-17T06:06:43.923Z,84.00
2023-06-17T06:09:12.076Z,83.40
2023-06-17T06:11:40.094Z,82.70
2023-06-17T06:14:09.479Z,82.50
2023-06-17T06:16:37.522Z,82.10
2023-06-17T06:19:06.653Z,81.60
2023-06-17T06:21:35.776Z,80.50
2023-06-17T06:24:03.724Z,79.50
2023-06-17T06:26:31.666Z,78.30
2023-06-17T06:28:59.604Z,77.00
2023-06-17T06:31:28.904Z,75.20
2023-06-17T06:33:56.931Z,73.70
2023-06-17T06:36:24.863Z,72.40
2023-06-17T06:38:52.772Z,71.00
2023-06-17T06:41:20.921Z,69.20
2023-06-17T06:43:48.972Z,68.10
2023-06-17T06:46:17.111Z,67.10
2023-06-17T06:48:46.772Z,66.50
2023-06-17T06:51:14.679Z,65.70
2023-06-17T06:53:42.621Z,64.20
2023-06-17T06:56:10.548Z,63.00
2023-06-17T06:58:38.485Z,62.20
2023-06-17T07:01:06.450Z,61.70
2023-06-17T07:03:34.488Z,61.30
2023-06-17T07:06:04.693Z,61.20
2023-06-17T07:08:32.656Z,60.40
2023-06-17T07:11:00.584Z,59.80
2023-06-17T07:13:28.928Z,58.90
2023-06-17T07:15:56.797Z,58.10
2023-06-17T07:18:25.310Z,57.30
2023-06-17T07:20:53.242Z,56.60
2023-06-17T07:23:22.564Z,56.10
2023-06-17T07:25:52.928Z,56.30
2023-06-17T07:28:23.120Z,55.00
2023-06-17T07:30:51.747Z,54.70
2023-06-17T07:33:19.759Z,54.40
2023-06-17T07:35:47.766Z,54.00
2023-06-17T07:38:15.714Z,53.40
2023-06-17T07:40:47.815Z,53.10
2023-06-17T07:43:15.824Z,52.70
2023-06-17T07:45:43.768Z,52.50
2023-06-17T07:48:11.696Z,52.10
2023-06-17T07:50:39.613Z,51.70
2023-06-17T07:53:07.492Z,51.00
2023-06-17T07:55:35.367Z,50.50
2023-06-17T07:58:04.632Z,50.00
2023-06-17T08:00:32.681Z,49.40
2023-06-17T08:03:00.974Z,48.80
2023-06-17T08:05:28.960Z,48.10
2023-06-17T08:07:57.100Z,47.40
2023-06-17T08:10:25.081Z,46.30
2023-06-17T08:12:53.081Z,45.30
2023-06-17T08:15:23.331Z,44.30
2023-06-17T08:17:51.906Z,43.90
2023-06-17T08:20:20.141Z,42.70
2023-06-17T08:22:48.243Z,41.80
2023-06-17T08:25:16.189Z,40.60
2023-06-17T08:27:48.678Z,39.70
2023-06-17T08:30:16.843Z,39.00
2023-06-17T08:32:46.227Z,37.80
2023-06-17T08:35:15.330Z,36.80
2023-06-17T08:37:43.440Z,36.00
2023-06-17T08:40:12.113Z,35.40
2023-06-17T08:42:40.979Z,34.60
2023-06-17T08:45:10.083Z,33.90
2023-06-17T08:47:38.376Z,32.90
2023-06-17T08:50:08.920Z,32.30
2023-06-17T08:52:40.267Z,30.30
2023-06-17T08:55:09.292Z,29.20
2023-06-17T08:57:37.565Z,28.10
2023-06-17T09:00:07.313Z,27.30
2023-06-17T09:02:37.731Z,26.40
2023-06-17T09:05:13.728Z,25.60
2023-06-17T09:07:43.462Z,23.40
2023-06-17T09:10:11.649Z,21.50
2023-06-17T09:12:40.035Z,20.20
2023-06-17T09:15:09.321Z,19.00
2023-06-17T09:17:39.910Z,17.60
2023-06-17T09:20:13.905Z,16.30
2023-06-17T09:22:42.826Z,14.90
2023-06-17T09:25:13.893Z,13.40
2023-06-17T09:28:03.094Z,12.40
2023-06-17T09:30:43.058Z,11.50
2023-06-17T09:33:19.536Z,10.30
2023-06-17T09:35:49.031Z,9.80
2023-06-17T09:38:18.275Z,9.10
2023-06-17T09:40:49.331Z,8.60
2023-06-17T09:43:27.662Z,7.80
2023-06-17T09:46:00.387Z,6.60
2023-06-17T09:48:32.853Z,5.10
2023-06-17T09:51:06.773Z,3.60
2023-06-17T09:53:38.512Z,2.80
2023-06-17T09:56:12.092Z,2.50
2023-06-17T09:58:43.725Z,2.20
2023-06-17T10:01:13.337Z,1.80
2023-06-17T10:03:41.793Z,1.70
2023-06-17T10:06:12.264Z,1.30
2023-06-17T10:08:43.009Z,1.40
2023-06-17T10:11:13.841Z,1.40
2023-06-17T10:13:43.856Z,1.50
2023-06-17T10:16:14.640Z,1.50
2023-06-17T10:18:45.509Z,1.50
2023-06-17T10:21:15.871Z,1.40
2023-06-17T10:23:45.187Z,1.50
2023-06-17T10:26:14.252Z,1.30
2023-06-17T10:28:46.810Z,1.10
2023-06-17T10:31:28.573Z,1.00
2023-06-17T10:33:58.657Z,1.00
2023-06-17T10:36:29.280Z,1.00
2023-06-17T10:38:58.325Z,1.00
2023-06-17T10:42:00.376Z,1.00
2023-06-17T10:44:44.261Z,1.00
2023-06-17T10:47:22.335Z,1.00
2023-06-17T10:49:51.064Z,1.00
2023-06-17T10:52:21.666Z,1.00
2023-06-17T10:54:52.939Z,1.00
2023-06-17T10:57:34.468Z,1.00
2023-06-17T11:00:08.029Z,1.00
2023-06-17T11:02:37.184Z,1.00
2023-06-17T11:05:06.230Z,1.00
2023-06-17T11:07:35.881Z,1.00
2023-06-17T11:10:04.479Z,1.00
2023-06-17T11:12:35.261Z,1.00
2023-06-17T11:15:04.614Z,1.00
2023-06-17T11:17:32.827Z,1.00
2023-06-17T11:20:00.909Z,1.00
2023-06-17T11:22:28.887Z,1.90
2023-06-17T11:24:59.311Z,2.70
2023-06-17T11:27:27.357Z,3.00
2023-06-17T11:29:55.485Z,3.20
2023-06-17T11:32:23.617Z,3.10
2023-06-17T11:34:53.061Z,3.50
2023-06-17T11:37:21.306Z,2.70
2023-06-17T11:39:49.383Z,2.80
2023-06-17T11:42:19.017Z,2.90
2023-06-17T11:44:47.349Z,2.80
2023-06-17T11:47:15.794Z,2.80
2023-06-17T11:49:43.924Z,3.10
2023-06-17T11:52:12.847Z,3.30
2023-06-17T11:54:49.613Z,3.70
2023-06-17T11:57:22.649Z,4.00
2023-06-17T11:59:52.028Z,4.20
2023-06-17T12:02:20.865Z,4.20
2023-06-17T12:04:49.362Z,4.30
2023-06-17T12:07:17.526Z,4.30
2023-06-17T12:09:52.968Z,3.90
2023-06-17T12:12:29.784Z,4.10
2023-06-17T12:15:10.923Z,4.60
2023-06-17T12:17:45.315Z,4.70
2023-06-17T12:20:15.704Z,4.80
2023-06-17T12:22:44.370Z,4.40
2023-06-17T12:25:13.279Z,4.20
2023-06-17T12:27:43.782Z,4.20
2023-06-17T12:30:14.971Z,4.30
2023-06-17T12:32:43.951Z,4.30
2023-06-17T12:35:12.897Z,3.90
2023-06-17T12:37:43.310Z,3.30
2023-06-17T12:40:12.500Z,3.30
2023-06-17T12:42:41.944Z,3.70
2023-06-17T12:45:10.829Z,3.90
2023-06-17T12:47:38.854Z,4.10
2023-06-17T12:50:08.041Z,4.20
2023-06-17T12:52:36.849Z,4.20
2023-06-17T12:55:05.918Z,4.10
2023-06-17T12:57:34.023Z,3.90
2023-06-17T13:00:05.373Z,3.60
2023-06-17T13:02:36.720Z,3.30
2023-06-17T13:05:06.287Z,3.40
2023-06-17T13:07:34.342Z,3.70
2023-06-17T13:10:02.253Z,3.50
2023-06-17T13:12:30.215Z,3.40
2023-06-17T13:14:58.179Z,3.30
2023-06-17T13:17:27.533Z,3.30
2023-06-17T13:19:55.529Z,3.20
2023-06-17T13:22:23.502Z,3.10
2023-06-17T13:24:52.196Z,3.10
2023-06-17T13:27:20.321Z,2.60
2023-06-17T13:29:48.412Z,2.90
2023-06-17T13:32:19.331Z,3.10
2023-06-17T13:34:49.083Z,3.10
2023-06-17T13:37:17.145Z,3.30
2023-06-17T13:39:45.939Z,3.40
2023-06-17T13:42:14.339Z,3.50
2023-06-17T13:44:45.284Z,3.50
2023-06-17T13:47:13.419Z,3.10
2023-06-17T13:49:41.301Z,3.10
2023-06-17T13:52:11.909Z,3.00
2023-06-17T13:54:39.821Z,3.00
2023-06-17T13:57:08.950Z,3.00
2023-06-17T13:59:37.578Z,3.00
2023-06-17T14:02:05.794Z,2.70
2023-06-17T14:04:33.782Z,2.50
2023-06-17T14:07:01.797Z,2.20
2023-06-17T14:09:31.215Z,2.40
2023-06-17T14:11:59.121Z,2.40
2023-06-17T14:14:27.056Z,1.90
2023-06-17T14:16:57.536Z,1.40
2023-06-17T14:19:25.525Z,1.20
2023-06-17T14:21:58.166Z,1.00
2023-06-17T14:24:26.396Z,1.10
2023-06-17T14:27:27.298Z,1.30
2023-06-17T14:29:55.573Z,1.30
2023-06-17T14:32:23.517Z,1.30
2023-06-17T14:34:54.540Z,1.20
2023-06-17T14:37:22.609Z,1.30
2023-06-17T14:39:50.668Z,1.30
2023-06-17T14:42:19.940Z,1.50
2023-06-17T14:44:48.516Z,1.50
2023-06-17T14:47:18.412Z,1.50
2023-06-17T14:49:48.595Z,1.50
2023-06-17T14:52:16.764Z,1.50
2023-06-17T14:54:44.756Z,1.90
2023-06-17T14:57:13.606Z,1.40
2023-06-17T14:59:43.624Z,1.00
2023-06-17T15:02:36.559Z,1.00
2023-06-17T15:05:04.678Z,1.00
2023-06-17T15:07:32.560Z,1.00
2023-06-17T15:10:00.519Z,1.00
2023-06-17T15:12:28.412Z,1.00
2023-06-17T15:14:57.719Z,1.00
2023-06-17T15:17:26.099Z,1.00
2023-06-17T15:19:54.144Z,1.00
2023-06-17T15:22:22.273Z,1.00
2023-06-17T15:24:50.323Z,1.00
2023-06-17T15:27:18.307Z,1.00
2023-06-17T15:29:46.263Z,1.00
2023-06-17T15:32:15.664Z,1.00
2023-06-17T15:34:44.147Z,1.00
2023-06-17T15:37:12.233Z,1.00
2023-06-17T15:39:40.148Z,1.00
2023-06-17T15:42:08.589Z,1.00
2023-06-17T15:44:36.623Z,1.00
2023-06-17T15:47:05.026Z,1.00
2023-06-17T15:49:35.666Z,1.00
2023-06-17T15:52:04.002Z,1.00
2023-06-17T15:54:31.978Z,1.00
2023-06-17T15:57:02.006Z,1.00
2023-06-17T15:59:31.345Z,1.00
2023-06-17T16:01:59.315Z,1.00
2023-06-17T16:04:36.680Z,1.10
2023-06-17T16:07:06.679Z,1.00
2023-06-17T16:09:36.953Z,1.00
2023-06-17T16:12:05.859Z,1.00
2023-06-17T16:14:35.144Z,1.00
2023-06-17T16:17:04.974Z,1.00
2023-06-17T16:19:33.273Z,1.00
2023-06-17T16:22:03.033Z,1.10
2023-06-17T16:24:31.168Z,1.30
2023-06-17T16:26:59.946Z,1.30
2023-06-17T16:29:28.197Z,1.20
2023-06-17T16:31:56.110Z,1.20
2023-06-17T16:34:24.325Z,1.40
2023-06-17T16:36:52.502Z,1.30
2023-06-17T16:39:22.174Z,1.30
2023-06-17T16:41:50.283Z,1.30
2023-06-17T16:44:18.285Z,1.20
2023-06-17T16:46:47.641Z,1.30
2023-06-17T16:49:15.721Z,1.50
2023-06-17T16:51:43.644Z,1.50
2023-06-17T16:54:11.602Z,1.70
2023-06-17T16:56:40.921Z,2.20
2023-06-17T16:59:08.864Z,2.30
2023-06-17T17:01:36.862Z,2.30
2023-06-17T17:04:11.209Z,2.40
2023-06-17T17:06:39.235Z,2.40
2023-06-17T17:09:07.342Z,2.50
2023-06-17T17:11:35.271Z,2.50
2023-06-17T17:14:04.778Z,2.40
2023-06-17T17:16:32.779Z,2.40
2023-06-17T17:19:00.761Z,2.60
2023-06-17T17:21:28.964Z,3.00
2023-06-17T17:23:56.895Z,2.90
2023-06-17T17:26:25.028Z,3.00
2023-06-17T17:28:52.912Z,2.90
2023-06-17T17:31:22.233Z,2.70
2023-06-17T17:33:52.103Z,2.80
2023-06-17T17:36:20.769Z,3.00
2023-06-17T17:38:48.888Z,2.90
2023-06-17T17:41:16.863Z,2.90
2023-06-17T17:43:44.928Z,2.90
2023-06-17T17:46:12.987Z,2.90
2023-06-17T17:48:42.245Z,3.20
2023-06-17T17:51:10.178Z,3.50
2023-06-17T17:53:38.141Z,3.60
2023-06-17T17:56:06.344Z,3.70
2023-06-17T17:58:35.979Z,3.90
2023-06-17T18:01:04.780Z,3.90
2023-06-17T18:03:32.821Z,3.90
2023-06-17T18:06:02.259Z,4.00
2023-06-17T18:08:30.377Z,4.40
2023-06-17T18:10:58.504Z,4.60
2023-06-17T18:13:28.103Z,4.60
2023-06-17T18:15:57.557Z,4.60
2023-06-17T18:18:25.527Z,4.70
2023-06-17T18:20:53.397Z,4.80
2023-06-17T18:23:22.700Z,4.80
2023-06-17T18:25:50.764Z,4.90
2023-06-17T18:28:18.662Z,4.90
2023-06-17T18:30:46.698Z,5.00
2023-06-17T18:33:14.686Z,5.00
2023-06-17T18:35:42.637Z,5.10
2023-06-17T18:38:10.637Z,5.20
2023-06-17T18:40:39.909Z,5.30
2023-06-17T18:43:08.736Z,5.60
2023-06-17T18:45:36.672Z,5.70
2023-06-17T18:48:05.017Z,5.70
2023-06-17T18:50:33.218Z,5.90
2023-06-17T18:53:01.186Z,6.00
2023-06-17T18:55:31.191Z,6.20
2023-06-17T18:58:00.904Z,6.30
2023-06-17T19:00:31.700Z,6.40
2023-06-17T19:02:59.677Z,6.40
2023-06-17T19:05:27.698Z,6.70
2023-06-17T19:07:55.708Z,6.90
2023-06-17T19:10:23.986Z,7.20
2023-06-17T19:12:52.100Z,7.30
2023-06-17T19:15:21.754Z,7.60
2023-06-17T19:17:49.804Z,7.90
2023-06-17T19:20:17.921Z,9.10
2023-06-17T19:22:46.138Z,8.90
2023-06-17T19:25:14.017Z,9.00
2023-06-17T19:27:41.968Z,9.20
2023-06-17T19:30:10.636Z,9.60
2023-06-17T19:32:40.000Z,10.00
2023-06-17T19:35:08.598Z,10.30
2023-06-17T19:37:37.679Z,10.70
2023-06-17T19:40:06.478Z,10.90
2023-06-17T19:42:34.387Z,11.20
2023-06-17T19:45:02.360Z,11.60
2023-06-17T19:47:30.364Z,11.80
2023-06-17T19:50:00.453Z,12.00
2023-06-17T19:52:28.355Z,12.30
2023-06-17T19:54:56.570Z,12.50
2023-06-17T19:57:24.499Z,12.70
2023-06-17T19:59:52.488Z,13.00
2023-06-17T20:02:21.138Z,13.20
2023-06-17T20:04:49.188Z,13.50
2023-06-17T20:07:19.858Z,13.70
2023-06-17T20:09:47.968Z,14.00
2023-06-17T20:12:16.591Z,14.30
2023-06-17T20:14:45.575Z,14.60
2023-06-17T20:17:13.649Z,14.80
2023-06-17T20:19:41.828Z,15.10
2023-06-17T20:22:09.753Z,15.30
2023-06-17T20:24:38.998Z,15.60
2023-06-17T20:27:07.818Z,15.80
2023-06-17T20:29:36.180Z,16.10
2023-06-17T20:32:04.252Z,16.40
2023-06-17T20:34:32.191Z,16.70
2023-06-17T20:37:00.102Z,17.00
2023-06-17T20:39:27.989Z,17.40
2023-06-17T20:41:57.255Z,17.70
2023-06-17T20:44:25.241Z,18.00
2023-06-17T20:46:58.732Z,18.10
2023-06-17T20:49:27.158Z,18.20
2023-06-17T20:51:55.706Z,18.30
2023-06-17T20:54:23.666Z,18.40
2023-06-17T20:56:51.639Z,18.60
2023-06-17T20:59:22.409Z,18.90
2023-06-17T21:01:50.389Z,19.00
2023-06-17T21:04:18.609Z,19.20
2023-06-17T21:06:46.557Z,19.30
2023-06-17T21:09:14.725Z,19.50
2023-06-17T21:11:42.736Z,19.50
2023-06-17T21:14:10.818Z,19.80
2023-06-17T21:16:40.092Z,20.10
2023-06-17T21:19:08.033Z,20.30
2023-06-17T21:21:36.062Z,20.40
2023-06-17T21:24:04.137Z,20.50
2023-06-17T21:26:32.143Z,20.70
2023-06-17T21:29:00.126Z,20.90
2023-06-17T21:31:28.034Z,21.10
2023-06-17T21:33:57.311Z,21.20
2023-06-17T21:36:25.296Z,21.30
2023-06-17T21:38:53.194Z,21.30
2023-06-17T21:41:21.263Z,21.50
2023-06-17T21:43:49.133Z,21.80
2023-06-17T21:46:17.409Z,22.00
2023-06-17T21:48:45.464Z,22.90
2023-06-17T21:51:14.707Z,22.90
2023-06-17T21:53:42.733Z,23.00
2023-06-17T21:56:11.561Z,23.10
2023-06-17T21:58:40.213Z,23.30
2023-06-17T22:01:08.174Z,23.50
2023-06-17T22:03:36.276Z,23.60
2023-06-17T22:06:04.560Z,23.70
2023-06-17T22:08:42.101Z,23.90
2023-06-17T22:11:12.181Z,24.20
2023-06-17T22:13:40.418Z,24.30
2023-06-17T22:16:08.518Z,24.30
2023-06-17T22:18:36.533Z,24.40
2023-06-17T22:21:04.652Z,24.50
2023-06-17T22:23:33.966Z,24.50
2023-06-17T22:26:01.841Z,24.60
2023-06-17T22:28:30.214Z,24.60
2023-06-17T22:30:58.123Z,24.70
2023-06-17T22:33:26.132Z,24.90
2023-06-17T22:35:54.121Z,25.00
2023-06-17T22:38:22.116Z,25.10
2023-06-17T22:40:52.568Z,25.30
2023-06-17T22:43:20.952Z,25.40
2023-06-17T22:45:49.655Z,25.60
2023-06-17T22:48:17.878Z,25.80
2023-06-17T22:50:45.946Z,26.00
2023-06-17T22:53:14.084Z,26.20
2023-06-17T22:55:42.299Z,26.40
2023-06-17T22:58:11.860Z,26.70
2023-06-17T23:00:39.896Z,27.10
2023-06-17T23:03:08.250Z,27.20
2023-06-17T23:05:36.259Z,27.30
2023-06-17T23:08:05.582Z,27.40
2023-06-17T23:10:33.643Z,27.60
2023-06-17T23:13:01.550Z,27.70
2023-06-17T23:15:30.827Z,27.90
2023-06-17T23:17:58.922Z,28.00
2023-06-17T23:20:27.003Z,28.00
2023-06-17T23:22:55.159Z,28.10
2023-06-17T23:25:27.227Z,28.30
2023-06-17T23:27:55.368Z,28.50
2023-06-17T23:30:24.096Z,28.60
2023-06-17T23:32:53.807Z,28.70
2023-06-17T23:35:21.733Z,28.80
2023-06-17T23:37:49.861Z,29.00
2023-06-17T23:40:17.784Z,29.10
2023-06-17T23:42:45.625Z,29.30
2023-06-17T23:45:15.154Z,29.40
2023-06-17T23:47:43.590Z,29.60
2023-06-17T23:50:13.068Z,29.90
2023-06-17T23:52:41.012Z,30.00
2023-06-17T23:55:09.693Z,30.20
2023-06-17T23:57:37.712Z,30.50
